createdAt,value
2022-12-22T00:02:18.717Z,2.8
2022-12-22T00:08:09.863Z,1.9
2022-12-22T00:14:01.221Z,4
2022-12-22T00:19:52.134Z,2
2022-12-22T00:25:42.513Z,5
2022-12-22T00:31:33.075Z,4.3
2022-12-22T00:37:24.054Z,2.2
2022-12-22T00:43:14.883Z,2.3
2022-12-22T00:49:05.990Z,1.9
2022-12-22T00:54:58.048Z,2.6
2022-12-22T01:00:49.289Z,2.2
2022-12-22T01:06:41.480Z,1.7
2022-12-22T01:12:32.910Z,2.6
2022-12-22T01:18:25.751Z,3.5
2022-12-22T01:24:16.462Z,2
2022-12-22T01:30:07.823Z,1.8
2022-12-22T01:35:59.130Z,2.7
2022-12-22T01:41:49.958Z,2
2022-12-22T01:47:42.142Z,1.2
2022-12-22T01:53:33.265Z,1.8
2022-12-22T01:59:26.545Z,1.6
2022-12-22T02:05:17.237Z,1.7
2022-12-22T02:11:08.438Z,2
2022-12-22T02:17:00.586Z,2.3
2022-12-22T02:22:51.787Z,3
2022-12-22T02:28:44.606Z,2.2
2022-12-22T02:34:35.025Z,2.5
2022-12-22T02:40:25.600Z,2.5
2022-12-22T02:46:17.448Z,1.7
2022-12-22T02:52:09.120Z,2.1
2022-12-22T02:58:01.953Z,2.9
2022-12-22T03:03:52.655Z,1.3
2022-12-22T03:09:44.179Z,1.6
2022-12-22T03:15:36.623Z,1.7
2022-12-22T03:21:28.448Z,1.3
2022-12-22T03:27:20.458Z,1.9
2022-12-22T03:33:10.969Z,2.9
2022-12-22T03:39:01.242Z,1.4
2022-12-22T03:44:52.180Z,1.4
2022-12-22T03:50:43.542Z,3.7
2022-12-22T03:56:36.438Z,1.9
2022-12-22T04:02:28.029Z,1.9
2022-12-22T04:08:19.439Z,1.2
2022-12-22T04:14:10.162Z,1.6
2022-12-22T04:20:00.786Z,1.1
2022-12-22T04:25:52.264Z,2.6
2022-12-22T04:31:44.555Z,1.4
2022-12-22T04:37:36.902Z,1.8
2022-12-22T04:43:25.486Z,1.1
2022-12-22T04:49:16.184Z,1.4
2022-12-22T04:55:07.103Z,1.7
2022-12-22T05:00:58.305Z,1.7
2022-12-22T05:06:50.785Z,1.4
2022-12-22T05:12:44.570Z,1.8
2022-12-22T05:18:35.766Z,1.4
2022-12-22T05:24:28.775Z,2.7
2022-12-22T05:30:19.968Z,0.7
2022-12-22T05:36:11.447Z,1.8
2022-12-22T05:42:02.690Z,2.1
2022-12-22T05:49:08.392Z,2
2022-12-22T05:55:00.321Z,3.3
2022-12-22T06:07:20.885Z,4
2022-12-22T06:13:27.260Z,3.4
2022-12-22T06:19:32.236Z,2.2
2022-12-22T06:25:26.358Z,5.8
2022-12-22T06:31:21.002Z,2.3
2022-12-22T06:37:12.687Z,1.5
2022-12-22T06:43:32.078Z,1
2022-12-22T06:49:21.431Z,2.6
2022-12-22T06:55:17.385Z,0.4
2022-12-22T07:01:08.131Z,1.3
2022-12-22T07:06:59.488Z,1.5
2022-12-22T07:12:49.236Z,1.8
2022-12-22T07:18:41.710Z,1.9
2022-12-22T07:24:33.665Z,1.4
2022-12-22T07:30:33.753Z,2.4
2022-12-22T07:36:24.187Z,1.9
2022-12-22T07:42:15.318Z,1.4
2022-12-22T07:48:06.799Z,0.6
2022-12-22T07:54:10.982Z,1
2022-12-22T08:00:15.899Z,1.1
2022-12-22T08:06:18.970Z,2.5
2022-12-22T08:12:36.333Z,0.9
2022-12-22T08:18:34.530Z,2.2
2022-12-22T08:24:34.234Z,2.7
2022-12-22T08:30:29.857Z,2.1
2022-12-22T08:36:24.808Z,1.9
2022-12-22T08:42:35.776Z,2.3
2022-12-22T08:48:32.138Z,3
2022-12-22T08:54:25.997Z,3.7
2022-12-22T09:00:30.546Z,3.9
2022-12-22T09:06:43.259Z,3
2022-12-22T09:12:36.550Z,3.9
2022-12-22T09:18:27.205Z,4.7
2022-12-22T09:24:18.965Z,4.1
2022-12-22T09:30:12.312Z,8.3
2022-12-22T09:36:13.039Z,13.6
2022-12-22T09:42:04.021Z,12.2
2022-12-22T09:47:57.924Z,14.3
2022-12-22T09:53:49.435Z,16
2022-12-22T09:59:41.678Z,17.1
2022-12-22T10:05:32.445Z,21
2022-12-22T10:11:22.107Z,25.9
2022-12-22T10:17:12.916Z,24.8
2022-12-22T10:23:06.990Z,22.6
2022-12-22T10:28:55.384Z,21.9
2022-12-22T10:34:45.355Z,19.9
2022-12-22T10:40:37.438Z,19.2
2022-12-22T10:46:26.419Z,21
2022-12-22T10:52:16.782Z,20.7
2022-12-22T10:58:12.576Z,20.7
2022-12-22T11:04:04.629Z,20.1
2022-12-22T11:09:54.881Z,19.9
2022-12-22T11:15:46.081Z,23.1
2022-12-22T11:21:50.390Z,22.1
2022-12-22T11:34:56.802Z,22.2
2022-12-22T12:01:39.724Z,15.8
2022-12-22T12:07:32.008Z,16.5
2022-12-22T12:13:40.287Z,20.8
2022-12-22T12:19:33.857Z,26.4
2022-12-22T12:25:33.035Z,17.2
2022-12-22T12:31:30.152Z,13
2022-12-22T12:37:29.163Z,15
2022-12-22T12:43:21.020Z,15.1
2022-12-22T12:49:10.897Z,12.6
2022-12-22T12:55:00.988Z,10.4
2022-12-22T13:01:02.500Z,10.2
2022-12-22T13:06:55.235Z,13.4
2022-12-22T13:12:45.423Z,10.2
2022-12-22T13:18:35.477Z,11.3
2022-12-22T13:24:33.604Z,12.3
2022-12-22T13:30:22.907Z,13.1
2022-12-22T13:36:14.213Z,10.5
2022-12-22T13:42:06.855Z,18.9
2022-12-22T13:47:58.121Z,12.5
2022-12-22T13:54:21.871Z,12.3
2022-12-22T14:01:19.815Z,13.1
2022-12-22T14:07:10.052Z,12.7
2022-12-22T14:13:00.968Z,14.6
2022-12-22T14:18:52.014Z,15.8
2022-12-22T14:24:43.420Z,15.2
2022-12-22T14:30:41.727Z,13.5
2022-12-22T14:36:31.283Z,14.4
2022-12-22T14:42:20.300Z,13.3
2022-12-22T14:48:09.676Z,14
2022-12-22T14:54:01.562Z,12.8
2022-12-22T14:59:51.151Z,12.6
2022-12-22T15:05:40.932Z,10
2022-12-22T15:11:30.811Z,11.1
2022-12-22T15:17:22.207Z,14.8
2022-12-22T15:23:12.718Z,18.6
2022-12-22T15:29:02.328Z,18.8
2022-12-22T15:34:52.402Z,18.2
2022-12-22T15:40:42.018Z,16.9
2022-12-22T15:46:31.315Z,17.9
2022-12-22T15:52:24.092Z,5.9
2022-12-22T15:58:14.793Z,5
2022-12-22T16:04:04.165Z,5.2
2022-12-22T16:09:55.691Z,3.2
2022-12-22T16:15:51.954Z,1.9
2022-12-22T16:21:52.355Z,2.9
2022-12-22T16:27:42.594Z,2
2022-12-22T16:33:38.812Z,2.7
2022-12-22T16:39:30.167Z,2.1
2022-12-22T16:45:21.324Z,2.1
2022-12-22T16:51:16.133Z,2.3
2022-12-22T16:57:08.915Z,4.2
2022-12-22T17:03:02.316Z,4.8
2022-12-22T17:08:53.787Z,5
2022-12-22T17:14:46.010Z,4.9
2022-12-22T17:20:37.294Z,7.3
2022-12-22T17:26:28.664Z,5.6
2022-12-22T17:32:24.487Z,5.6
2022-12-22T17:38:17.285Z,7
2022-12-22T17:44:12.364Z,28.5
2022-12-22T17:50:12.569Z,27.3
2022-12-22T17:56:14.463Z,5.6
2022-12-22T18:02:07.055Z,7
2022-12-22T18:07:57.551Z,6.4
2022-12-22T18:13:50.347Z,5.5
2022-12-22T18:19:41.233Z,7.6
2022-12-22T18:25:31.067Z,7.1
2022-12-22T18:31:20.755Z,8.1
2022-12-22T18:37:11.324Z,7
2022-12-22T18:43:04.020Z,7.5
2022-12-22T18:49:05.773Z,9.4
2022-12-22T18:54:55.177Z,8
2022-12-22T19:00:45.665Z,8.3
2022-12-22T19:06:37.887Z,15.7
2022-12-22T19:12:30.637Z,14.9
2022-12-22T19:18:30.552Z,12.4
2022-12-22T19:24:19.828Z,12.8
2022-12-22T19:30:10.248Z,11.4
2022-12-22T19:36:00.248Z,12.9
2022-12-22T19:41:51.697Z,12.7
2022-12-22T19:47:41.396Z,13.5
2022-12-22T19:53:29.900Z,17.5
2022-12-22T19:59:35.827Z,15.2
2022-12-22T20:05:27.596Z,16.7
2022-12-22T20:11:23.683Z,19.5
2022-12-22T20:17:13.352Z,18.9
2022-12-22T20:23:04.216Z,18
2022-12-22T20:28:54.043Z,22
2022-12-22T20:34:44.299Z,20.1
2022-12-22T20:40:33.992Z,22.1
2022-12-22T20:46:24.721Z,21.8
2022-12-22T20:52:13.207Z,24.5
2022-12-22T20:58:03.206Z,28.4
2022-12-22T21:03:54.463Z,22.1
2022-12-22T21:09:43.959Z,24.2
2022-12-22T21:15:32.747Z,19.8
2022-12-22T21:21:23.105Z,23.4
2022-12-22T21:27:15.235Z,22.7
2022-12-22T21:33:06.287Z,21.4
2022-12-22T21:38:56.654Z,21.1
2022-12-22T21:44:48.668Z,17
2022-12-22T21:50:38.936Z,18.2
2022-12-22T21:56:35.590Z,21.7
2022-12-22T22:02:25.736Z,19.7
2022-12-22T22:08:16.707Z,17
2022-12-22T22:14:07.468Z,23.7
2022-12-22T22:19:58.190Z,21
2022-12-22T22:25:48.293Z,24.2
2022-12-22T22:31:40.595Z,30.1
2022-12-22T22:37:29.560Z,25
2022-12-22T22:43:20.595Z,29.8
2022-12-22T22:49:14.143Z,27.4
2022-12-22T22:55:04.897Z,24.5
2022-12-22T23:00:55.042Z,20.2
2022-12-22T23:06:45.004Z,20
2022-12-22T23:12:37.129Z,23.2
2022-12-22T23:18:28.589Z,19.5
2022-12-22T23:24:18.410Z,22.8
2022-12-22T23:30:06.797Z,20.9
2022-12-22T23:35:55.118Z,18.2
2022-12-22T23:41:45.142Z,21.1
2022-12-22T23:47:35.197Z,16.4
2022-12-22T23:53:25.835Z,18.8
2022-12-22T23:59:15.411Z,15.5
